Time;durP1;ratioP1;P1;durP2;ratioP2;P2;SDS_P1;SDS_P2;PMS_P1;PMS_P2;Temp;Humidity;BMP_temperature;BMP_pressure;BME280_temperature;BME280_humidity;BME280_pressure;Samples;Min_cycle;Max_cycle;Signal;HPM_P1;HPM_P2
2022/03/24 00:00:11;;;;;;;;;;;21.90;27.40;;;;;;693939;28;1700;-82
2022/03/24 00:00:31;;;;;;;;;;;21.90;26.90;;;;;;694006;28;854;-82
2022/03/24 00:00:52;;;;;;;;;;;21.90;27.20;;;;;;691312;28;1571;-82
2022/03/24 00:01:13;;;;;;;;;;;21.90;26.80;;;;;;691337;28;807;-83
2022/03/24 00:01:35;;;;;;;;;;;21.90;27.60;;;;;;691301;28;875;-82
2022/03/24 00:01:56;;;;;;;;;;;21.90;26.70;;;;;;691895;28;866;-81
2022/03/24 00:02:16;;;;;;;;;;;21.90;26.50;;;;;;694186;28;953;-82
2022/03/24 00:02:37;;;;;;;;;;;21.90;26.80;;;;;;694066;28;815;-83
2022/03/24 00:02:57;;;;;;;;;;;21.90;26.80;;;;;;694239;28;929;-83
2022/03/24 00:03:18;;;;;;;;;;;21.90;27.50;;;;;;694339;28;835;-82
2022/03/24 00:03:38;;;;;;;;;;;21.90;27.50;;;;;;694170;28;507;-82
2022/03/24 00:03:59;;;;;;;;;;;21.90;26.90;;;;;;694295;28;843;-83
2022/03/24 00:04:20;;;;;;;;;;;21.90;26.90;;;;;;694324;28;906;-83
2022/03/24 00:04:40;;;;;;;;;;;21.90;26.90;;;;;;694178;28;795;-82
2022/03/24 00:05:01;;;;;;;;;;;21.90;26.70;;;;;;694114;28;910;-82
2022/03/24 00:05:22;;;;;;;;;;;21.90;26.60;;;;;;691483;28;729;-83
2022/03/24 00:05:42;;;;;;;;;;;21.90;26.50;;;;;;691437;28;1107;-82
2022/03/24 00:06:03;;;;;;;;;;;21.90;26.50;;;;;;691483;28;796;-83
2022/03/24 00:06:23;;;;;;;;;;;21.90;26.70;;;;;;694256;28;894;-82
2022/03/24 00:06:44;;;;;;;;;;;21.90;26.90;;;;;;694197;28;814;-82
2022/03/24 00:07:05;;;;;;;;;;;21.90;26.70;;;;;;694261;28;862;-82
2022/03/24 00:07:26;;;;;;;;;;;21.90;26.60;;;;;;694236;28;913;-82
2022/03/24 00:07:46;;;;;;;;;;;21.90;26.50;;;;;;694278;28;814;-82
2022/03/24 00:08:07;;;;;;;;;;;21.90;26.50;;;;;;694293;28;783;-83
2022/03/24 00:08:28;;;;;;;;;;;21.90;26.60;;;;;;694067;28;826;-81
2022/03/24 00:08:48;;;;;;;;;;;21.90;26.60;;;;;;694360;28;799;-81
2022/03/24 00:09:09;;;;;;;;;;;21.90;27.30;;;;;;693866;28;1369;-79
2022/03/24 00:09:29;;;;;;;;;;;21.90;26.90;;;;;;691175;28;1338;-81
2022/03/24 00:09:50;;;;;;;;;;;21.90;26.50;;;;;;691366;28;838;-83
2022/03/24 00:10:11;;;;;;;;;;;21.90;26.40;;;;;;691296;28;878;-80
2022/03/24 00:10:31;;;;;;;;;;;21.90;26.30;;;;;;691229;28;784;-81
2022/03/24 00:10:52;;;;;;;;;;;21.90;26.50;;;;;;691766;28;883;-81
2022/03/24 00:11:13;;;;;;;;;;;23.60;28.10;;;;;;694061;28;842;-82
2022/03/24 00:11:34;;;;;;;;;;;22.00;27.40;;;;;;694214;28;870;-82
2022/03/24 00:11:55;;;;;;;;;;;22.00;26.60;;;;;;696633;28;1291;-83
2022/03/24 00:12:16;;;;;;;;;;;21.90;27.00;;;;;;696990;28;897;-82
2022/03/24 00:12:38;;;;;;;;;;;21.90;26.90;;;;;;696900;28;842;-81
2022/03/24 00:12:59;;;;;;;;;;;21.90;27.10;;;;;;693944;28;1201;-82
2022/03/24 00:13:19;;;;;;;;;;;21.90;26.90;;;;;;694165;28;834;-82
2022/03/24 00:13:40;;;;;;;;;;;21.90;27.20;;;;;;693932;28;1197;-82
2022/03/24 00:14:00;;;;;;;;;;;21.90;27.60;;;;;;694018;28;932;-82
2022/03/24 00:14:21;;;;;;;;;;;22.00;27.10;;;;;;691338;28;1324;-83
2022/03/24 00:14:42;;;;;;;;;;;22.00;26.60;;;;;;691676;28;799;-82
2022/03/24 00:15:04;;;;;;;;;;;21.90;27.90;;;;;;693889;28;1914;-82
2022/03/24 00:15:25;;;;;;;;;;;21.90;26.60;;;;;;694106;28;925;-80
2022/03/24 00:15:46;;;;;;;;;;;22.00;26.70;;;;;;694135;28;846;-83
2022/03/24 00:16:07;;;;;;;;;;;22.00;26.50;;;;;;694077;28;870;-83
2022/03/24 00:16:28;;;;;;;;;;;22.00;27.10;;;;;;694190;28;818;-83
2022/03/24 00:16:49;;;;;;;;;;;21.90;27.10;;;;;;694336;28;779;-81
2022/03/24 00:17:09;;;;;;;;;;;21.90;26.60;;;;;;694225;28;905;-82
2022/03/24 00:17:30;;;;;;;;;;;22.00;26.80;;;;;;694235;28;799;-83
2022/03/24 00:17:51;;;;;;;;;;;21.90;26.60;;;;;;694299;28;783;-82
2022/03/24 00:18:12;;;;;;;;;;;22.00;26.80;;;;;;694233;28;902;-82
2022/03/24 00:18:34;;;;;;;;;;;21.90;26.70;;;;;;694203;28;814;-82
2022/03/24 00:18:55;;;;;;;;;;;21.90;27.20;;;;;;694216;28;914;-82
2022/03/24 00:19:19;;;;;;;;;;;22.00;27.10;;;;;;694293;28;799;-83
2022/03/24 00:19:39;;;;;;;;;;;22.00;26.80;;;;;;694186;28;1342;-83
2022/03/24 00:20:00;;;;;;;;;;;22.00;26.90;;;;;;694129;28;1041;-82
2022/03/24 00:20:21;;;;;;;;;;;21.90;26.50;;;;;;694292;28;929;-83
2022/03/24 00:20:42;;;;;;;;;;;21.90;26.50;;;;;;694074;28;835;-82
2022/03/24 00:21:03;;;;;;;;;;;21.90;26.50;;;;;;693989;28;946;-82
2022/03/24 00:21:24;;;;;;;;;;;22.00;26.60;;;;;;694221;28;847;-83
2022/03/24 00:21:45;;;;;;;;;;;22.00;26.60;;;;;;694142;28;807;-82
2022/03/24 00:22:05;;;;;;;;;;;21.90;26.60;;;;;;694244;28;846;-82
2022/03/24 00:22:26;;;;;;;;;;;22.00;26.50;;;;;;694144;28;819;-82
2022/03/24 00:22:47;;;;;;;;;;;21.90;26.50;;;;;;694309;28;811;-83
2022/03/24 00:23:08;;;;;;;;;;;22.00;26.40;;;;;;694248;28;819;-81
2022/03/24 00:23:28;;;;;;;;;;;22.00;26.40;;;;;;696547;28;1303;-81
2022/03/24 00:23:49;;;;;;;;;;;22.00;26.50;;;;;;696843;28;803;-82
2022/03/24 00:24:10;;;;;;;;;;;24.70;28.20;;;;;;696848;28;898;-82
2022/03/24 00:25:06;;;;;;;;;;;21.90;26.40;;;;;;696655;28;957;-82
2022/03/24 00:25:26;;;;;;;;;;;21.90;26.40;;;;;;694555;28;777;-81
2022/03/24 00:25:47;;;;;;;;;;;21.90;27.20;;;;;;694185;28;874;-80
2022/03/24 00:26:08;;;;;;;;;;;21.90;26.40;;;;;;693918;28;1550;-82
2022/03/24 00:26:29;;;;;;;;;;;21.90;26.30;;;;;;693870;28;1394;-82
2022/03/24 00:26:50;;;;;;;;;;;21.90;26.50;;;;;;694065;28;834;-82
2022/03/24 00:27:10;;;;;;;;;;;21.90;26.90;;;;;;694080;28;966;-81
2022/03/24 00:27:31;;;;;;;;;;;21.90;26.80;;;;;;693987;28;826;-82
2022/03/24 00:27:51;;;;;;;;;;;21.90;26.60;;;;;;693933;28;1339;-83
2022/03/24 00:28:12;;;;;;;;;;;21.90;26.40;;;;;;694303;28;950;-82
2022/03/24 00:28:33;;;;;;;;;;;21.90;26.40;;;;;;696770;28;799;-80
2022/03/24 00:28:54;;;;;;;;;;;21.90;27.00;;;;;;696838;28;615;-81
2022/03/24 00:29:14;;;;;;;;;;;21.90;26.40;;;;;;693807;28;1204;-81
2022/03/24 00:29:35;;;;;;;;;;;21.90;26.60;;;;;;693987;28;883;-82
2022/03/24 00:29:56;;;;;;;;;;;21.90;26.20;;;;;;693980;28;783;-82
2022/03/24 00:30:16;;;;;;;;;;;22.50;27.20;;;;;;694087;28;830;-82
2022/03/24 00:30:37;;;;;;;;;;;21.90;26.60;;;;;;693972;28;965;-82
2022/03/24 00:30:58;;;;;;;;;;;21.90;26.40;;;;;;693990;28;890;-82
2022/03/24 00:31:18;;;;;;;;;;;21.90;26.30;;;;;;694284;28;926;-80
2022/03/24 00:31:39;;;;;;;;;;;21.90;26.30;;;;;;693766;28;1084;-83
2022/03/24 00:32:00;;;;;;;;;;;21.90;26.30;;;;;;693976;28;834;-82
2022/03/24 00:32:20;;;;;;;;;;;21.90;27.00;;;;;;694145;28;807;-80
2022/03/24 00:32:41;;;;;;;;;;;21.90;26.90;;;;;;693937;28;861;-83
2022/03/24 00:33:01;;;;;;;;;;;21.90;27.10;;;;;;693742;28;1174;-82
2022/03/24 00:33:22;;;;;;;;;;;21.80;27.00;;;;;;694365;28;791;-81
2022/03/24 00:33:43;;;;;;;;;;;21.90;26.40;;;;;;696754;28;866;-81
2022/03/24 00:34:05;;;;;;;;;;;20.00;26.00;;;;;;693864;28;1384;-83
2022/03/24 00:34:26;;;;;;;;;;;21.10;26.60;;;;;;693473;28;1329;-82
2022/03/24 00:34:46;;;;;;;;;;;21.90;27.20;;;;;;694093;28;1879;-82
2022/03/24 00:35:08;;;;;;;;;;;21.90;26.70;;;;;;691068;28;1392;-81
2022/03/24 00:35:28;;;;;;;;;;;21.80;27.10;;;;;;691313;28;839;-82
2022/03/24 00:35:49;;;;;;;;;;;21.90;26.90;;;;;;689117;28;1486;-81
2022/03/24 00:36:10;;;;;;;;;;;21.80;26.50;;;;;;691249;28;837;-82
2022/03/24 00:36:31;;;;;;;;;;;21.80;26.20;;;;;;688294;28;1177;-80
2022/03/24 00:36:51;;;;;;;;;;;21.90;26.50;;;;;;689071;28;815;-84
2022/03/24 00:37:12;;;;;;;;;;;21.80;26.20;;;;;;690996;28;1211;-82
2022/03/24 00:37:33;;;;;;;;;;;21.80;26.20;;;;;;691706;28;900;-82
2022/03/24 00:37:54;;;;;;;;;;;21.80;26.60;;;;;;693922;28;1366;-82
2022/03/24 00:38:14;;;;;;;;;;;21.80;26.30;;;;;;693954;28;1247;-82
2022/03/24 00:38:35;;;;;;;;;;;21.80;26.80;;;;;;691060;28;1306;-81
2022/03/24 00:38:55;;;;;;;;;;;21.80;27.60;;;;;;691245;28;905;-81
2022/03/24 00:39:16;;;;;;;;;;;21.80;26.30;;;;;;691296;28;871;-83
2022/03/24 00:39:36;;;;;;;;;;;21.80;26.40;;;;;;691447;28;877;-81
2022/03/24 00:40:00;;;;;;;;;;;21.80;26.20;;;;;;694024;28;776;-82
2022/03/24 00:40:21;;;;;;;;;;;21.80;26.20;;;;;;694171;28;814;-81
2022/03/24 00:40:41;;;;;;;;;;;21.80;26.50;;;;;;693830;28;1251;-82
2022/03/24 00:41:02;;;;;;;;;;;21.80;26.70;;;;;;693889;28;815;-82
2022/03/24 00:41:23;;;;;;;;;;;21.80;26.30;;;;;;694026;28;815;-82
2022/03/24 00:41:43;;;;;;;;;;;21.80;26.50;;;;;;694062;28;815;-83
2022/03/24 00:42:09;;;;;;;;;;;21.80;26.80;;;;;;693993;28;775;-83
2022/03/24 00:42:30;;;;;;;;;;;21.80;26.50;;;;;;694011;28;831;-81
2022/03/24 00:42:51;;;;;;;;;;;21.80;26.40;;;;;;694234;28;835;-81
2022/03/24 00:43:11;;;;;;;;;;;21.80;27.00;;;;;;694140;28;906;-83
2022/03/24 00:43:32;;;;;;;;;;;21.80;26.30;;;;;;694155;28;779;-82
2022/03/24 00:43:53;;;;;;;;;;;21.80;26.60;;;;;;694183;28;965;-81
2022/03/24 00:44:14;;;;;;;;;;;21.80;26.90;;;;;;693988;28;768;-82
2022/03/24 00:44:35;;;;;;;;;;;21.80;26.40;;;;;;693785;28;913;-82
2022/03/24 00:44:57;;;;;;;;;;;21.80;26.90;;;;;;693801;28;827;-83
2022/03/24 00:45:19;;;;;;;;;;;21.80;26.40;;;;;;693883;28;1103;-82
2022/03/24 00:45:42;;;;;;;;;;;21.80;26.80;;;;;;694170;28;897;-81
2022/03/24 00:46:04;;;;;;;;;;;21.80;26.40;;;;;;694206;28;847;-81
2022/03/24 00:46:25;;;;;;;;;;;21.80;26.90;;;;;;694193;28;921;-83
2022/03/24 00:46:45;;;;;;;;;;;21.80;26.70;;;;;;694216;28;869;-82
2022/03/24 00:47:06;;;;;;;;;;;21.80;26.30;;;;;;693912;28;799;-82
2022/03/24 00:47:27;;;;;;;;;;;21.80;26.80;;;;;;694104;28;764;-82
2022/03/24 00:47:47;;;;;;;;;;;21.70;26.50;;;;;;694101;28;913;-82
2022/03/24 00:48:08;;;;;;;;;;;21.80;26.20;;;;;;694130;28;791;-82
2022/03/24 00:48:29;;;;;;;;;;;21.80;26.50;;;;;;694180;28;788;-82
2022/03/24 00:48:50;;;;;;;;;;;21.80;26.50;;;;;;693926;28;1358;-82
2022/03/24 00:49:11;;;;;;;;;;;21.80;26.20;;;;;;693919;28;783;-82
2022/03/24 00:49:31;;;;;;;;;;;21.80;26.90;;;;;;693965;28;792;-82
2022/03/24 00:49:52;;;;;;;;;;;21.80;26.50;;;;;;693980;28;771;-80
2022/03/24 00:50:13;;;;;;;;;;;21.70;26.30;;;;;;694145;28;882;-81
2022/03/24 00:50:35;;;;;;;;;;;21.80;26.20;;;;;;693919;28;890;-82
2022/03/24 00:50:55;;;;;;;;;;;21.80;26.70;;;;;;694096;28;847;-81
2022/03/24 00:51:18;;;;;;;;;;;21.70;26.20;;;;;;693759;28;1410;-82
2022/03/24 00:51:38;;;;;;;;;;;22.00;27.00;;;;;;691024;28;1189;-82
2022/03/24 00:51:59;;;;;;;;;;;21.70;26.60;;;;;;691111;28;937;-82
2022/03/24 00:52:19;;;;;;;;;;;21.70;26.60;;;;;;691347;28;772;-81
2022/03/24 00:52:41;;;;;;;;;;;21.70;26.90;;;;;;691155;28;859;-82
2022/03/24 00:53:02;;;;;;;;;;;21.70;26.50;;;;;;691790;28;803;-81
2022/03/24 00:53:23;;;;;;;;;;;21.80;26.50;;;;;;693961;28;889;-81
2022/03/24 00:53:44;;;;;;;;;;;21.80;27.00;;;;;;694112;28;901;-81
2022/03/24 00:54:07;;;;;;;;;;;21.70;26.50;;;;;;693984;28;1032;-82
2022/03/24 00:54:27;;;;;;;;;;;23.00;27.50;;;;;;693713;28;1269;-82
2022/03/24 00:54:48;;;;;;;;;;;21.70;26.70;;;;;;693987;28;1898;-82
2022/03/24 00:55:12;;;;;;;;;;;21.70;26.40;;;;;;693960;28;914;-82
2022/03/24 00:55:34;;;;;;;;;;;21.70;26.10;;;;;;693720;28;1251;-82
2022/03/24 00:55:56;;;;;;;;;;;21.70;26.40;;;;;;694031;28;799;-82
2022/03/24 00:56:19;;;;;;;;;;;21.70;26.90;;;;;;694930;28;1169;-83
2022/03/24 00:56:40;;;;;;;;;;;21.70;26.30;;;;;;696692;28;878;-81
2022/03/24 00:57:01;;;;;;;;;;;21.70;26.50;;;;;;696628;28;791;-82
2022/03/24 00:57:22;;;;;;;;;;;21.70;26.80;;;;;;696814;28;733;-81
2022/03/24 00:57:44;;;;;;;;;;;21.70;26.70;;;;;;696668;28;783;-82
2022/03/24 00:58:05;;;;;;;;;;;21.70;26.30;;;;;;693708;28;1403;-82
2022/03/24 00:58:26;;;;;;;;;;;21.70;26.10;;;;;;693830;28;918;-82
2022/03/24 00:58:47;;;;;;;;;;;21.70;26.30;;;;;;694036;28;799;-82
2022/03/24 00:59:08;;;;;;;;;;;21.70;26.60;;;;;;691070;28;1235;-82
2022/03/24 00:59:29;;;;;;;;;;;21.70;27.00;;;;;;691135;28;803;-82
2022/03/24 00:59:50;;;;;;;;;;;21.70;27.20;;;;;;691891;28;851;-82
2022/03/24 01:00:17;;;;;;;;;;;21.70;26.50;;;;;;693957;28;704;-82
2022/03/24 01:00:40;;;;;;;;;;;21.70;26.50;;;;;;693932;28;795;-82
2022/03/24 01:01:04;;;;;;;;;;;21.70;26.40;;;;;;692512;28;1552;-82
2022/03/24 01:01:24;;;;;;;;;;;21.70;26.30;;;;;;694054;28;822;-82
2022/03/24 01:01:48;;;;;;;;;;;21.70;26.30;;;;;;693879;28;1154;-81
2022/03/24 01:02:09;;;;;;;;;;;21.70;26.10;;;;;;693883;28;891;-81
2022/03/24 01:02:30;;;;;;;;;;;21.70;26.80;;;;;;693826;28;779;-82
2022/03/24 01:02:52;;;;;;;;;;;21.70;26.60;;;;;;695214;28;775;-83
2022/03/24 01:03:12;;;;;;;;;;;21.70;26.20;;;;;;696656;28;839;-82
2022/03/24 01:03:33;;;;;;;;;;;21.70;26.20;;;;;;695656;28;806;-82
2022/03/24 01:03:54;;;;;;;;;;;21.70;26.20;;;;;;694228;28;806;-83
2022/03/24 01:04:15;;;;;;;;;;;21.70;26.30;;;;;;694086;28;803;-83
2022/03/24 01:04:36;;;;;;;;;;;21.70;26.80;;;;;;694075;28;843;-83
2022/03/24 01:04:57;;;;;;;;;;;21.60;26.20;;;;;;693901;28;1336;-83
2022/03/24 01:05:23;;;;;;;;;;;21.60;26.10;;;;;;696555;28;1207;-83
2022/03/24 01:05:44;;;;;;;;;;;21.60;26.10;;;;;;696732;28;882;-83
2022/03/24 01:06:06;;;;;;;;;;;21.70;26.90;;;;;;693844;28;1245;-83
2022/03/24 01:06:27;;;;;;;;;;;21.70;26.80;;;;;;693746;28;893;-82
2022/03/24 01:06:48;;;;;;;;;;;21.60;26.80;;;;;;693344;28;1281;-82
2022/03/24 01:07:09;;;;;;;;;;;21.70;26.90;;;;;;693972;28;794;-82
2022/03/24 01:07:29;;;;;;;;;;;21.60;27.00;;;;;;693902;28;803;-82
2022/03/24 01:07:50;;;;;;;;;;;21.70;26.70;;;;;;694034;28;783;-82
2022/03/24 01:08:10;;;;;;;;;;;21.60;26.50;;;;;;693922;28;780;-82
2022/03/24 01:08:31;;;;;;;;;;;21.60;26.20;;;;;;693915;28;551;-82
2022/03/24 01:08:52;;;;;;;;;;;21.60;26.20;;;;;;694195;28;783;-82
2022/03/24 01:09:12;;;;;;;;;;;21.60;26.10;;;;;;694046;28;819;-82
2022/03/24 01:09:33;;;;;;;;;;;21.60;26.10;;;;;;694107;28;834;-83
2022/03/24 01:09:53;;;;;;;;;;;21.60;26.20;;;;;;694181;28;830;-83
2022/03/24 01:10:16;;;;;;;;;;;21.60;26.10;;;;;;693667;28;1221;-82
2022/03/24 01:10:37;;;;;;;;;;;21.70;26.40;;;;;;693856;28;862;-81
2022/03/24 01:10:58;;;;;;;;;;;21.60;26.40;;;;;;693869;28;862;-83
2022/03/24 01:11:18;;;;;;;;;;;21.60;26.40;;;;;;691338;28;810;-83
2022/03/24 01:11:40;;;;;;;;;;;21.60;26.20;;;;;;691192;28;792;-82
2022/03/24 01:12:02;;;;;;;;;;;21.60;26.10;;;;;;692082;28;949;-82
2022/03/24 01:12:23;;;;;;;;;;;21.60;26.10;;;;;;693973;28;878;-83
2022/03/24 01:12:44;;;;;;;;;;;21.60;26.70;;;;;;693831;28;858;-82
2022/03/24 01:13:04;;;;;;;;;;;21.60;26.50;;;;;;691661;28;1315;-82
2022/03/24 01:13:25;;;;;;;;;;;21.60;26.20;;;;;;693966;28;858;-83
2022/03/24 01:13:45;;;;;;;;;;;21.60;26.70;;;;;;693969;28;855;-82
2022/03/24 01:14:07;;;;;;;;;;;21.60;26.20;;;;;;693839;28;807;-82
2022/03/24 01:14:28;;;;;;;;;;;21.60;26.10;;;;;;693945;28;882;-81
2022/03/24 01:14:48;;;;;;;;;;;21.60;26.20;;;;;;693863;28;1910;-81
2022/03/24 01:15:10;;;;;;;;;;;21.60;26.20;;;;;;693700;28;924;-81
2022/03/24 01:15:31;;;;;;;;;;;21.60;26.30;;;;;;693874;28;866;-81
2022/03/24 01:15:52;;;;;;;;;;;21.60;26.50;;;;;;694157;28;842;-81
2022/03/24 01:16:13;;;;;;;;;;;21.60;26.70;;;;;;694106;28;882;-81
2022/03/24 01:16:35;;;;;;;;;;;21.60;26.50;;;;;;694007;28;830;-81
2022/03/24 01:16:56;;;;;;;;;;;21.60;26.20;;;;;;694050;28;842;-83
2022/03/24 01:17:17;;;;;;;;;;;20.60;25.80;;;;;;694156;28;850;-81
2022/03/24 01:17:38;;;;;;;;;;;21.60;26.30;;;;;;694043;28;863;-81
2022/03/24 01:18:00;;;;;;;;;;;21.60;26.80;;;;;;693698;28;1326;-81
2022/03/24 01:18:21;;;;;;;;;;;21.60;26.70;;;;;;694016;28;818;-82
2022/03/24 01:18:41;;;;;;;;;;;21.60;26.10;;;;;;693800;28;870;-82
2022/03/24 01:19:03;;;;;;;;;;;21.50;26.40;;;;;;693846;28;913;-79
2022/03/24 01:19:24;;;;;;;;;;;21.50;25.90;;;;;;693957;28;878;-81
2022/03/24 01:19:45;;;;;;;;;;;21.50;26.00;;;;;;693865;28;593;-81
2022/03/24 01:20:06;;;;;;;;;;;21.60;26.90;;;;;;693998;28;822;-82
2022/03/24 01:20:27;;;;;;;;;;;21.60;26.30;;;;;;693939;28;1288;-82
2022/03/24 01:20:48;;;;;;;;;;;21.50;26.30;;;;;;694164;28;819;-81
2022/03/24 01:21:11;;;;;;;;;;;21.60;26.40;;;;;;694028;28;819;-79
2022/03/24 01:21:33;;;;;;;;;;;21.50;26.70;;;;;;693984;28;779;-81
2022/03/24 01:21:53;;;;;;;;;;;21.50;26.20;;;;;;694043;28;847;-81
2022/03/24 01:22:14;;;;;;;;;;;21.60;26.50;;;;;;694066;28;787;-81
2022/03/24 01:22:34;;;;;;;;;;;21.50;26.30;;;;;;693968;28;933;-82
2022/03/24 01:22:55;;;;;;;;;;;21.60;26.10;;;;;;694077;28;811;-82
2022/03/24 01:23:16;;;;;;;;;;;21.20;26.80;;;;;;693746;28;1208;-81
2022/03/24 01:23:36;;;;;;;;;;;21.60;26.10;;;;;;693807;28;831;-81
2022/03/24 01:23:59;;;;;;;;;;;21.50;26.90;;;;;;693770;28;792;-81
2022/03/24 01:24:20;;;;;;;;;;;21.50;26.70;;;;;;693942;28;863;-81
2022/03/24 01:24:41;;;;;;;;;;;21.50;26.70;;;;;;693839;28;799;-82
2022/03/24 01:25:02;;;;;;;;;;;21.60;26.00;;;;;;693834;28;898;-82
2022/03/24 01:25:27;;;;;;;;;;;21.60;25.80;;;;;;694171;28;779;-82
2022/03/24 01:25:48;;;;;;;;;;;21.50;25.90;;;;;;693980;28;879;-82
2022/03/24 01:26:09;;;;;;;;;;;21.60;26.10;;;;;;693997;28;850;-82
2022/03/24 01:26:30;;;;;;;;;;;21.60;26.60;;;;;;693978;28;819;-82
2022/03/24 01:26:51;;;;;;;;;;;21.60;26.50;;;;;;693775;28;1253;-82
2022/03/24 01:27:14;;;;;;;;;;;21.60;28.20;;;;;;693871;28;819;-82
2022/03/24 01:27:35;;;;;;;;;;;21.60;26.30;;;;;;693638;28;1255;-80
2022/03/24 01:27:56;;;;;;;;;;;20.50;25.60;;;;;;693600;28;776;-83
2022/03/24 01:28:16;;;;;;;;;;;21.50;26.40;;;;;;694022;28;834;-81
2022/03/24 01:28:37;;;;;;;;;;;21.60;26.60;;;;;;694526;28;831;-81
2022/03/24 01:28:59;;;;;;;;;;;21.50;26.70;;;;;;696540;28;867;-81
2022/03/24 01:29:22;;;;;;;;;;;21.60;26.20;;;;;;696775;28;885;-82
2022/03/24 01:29:44;;;;;;;;;;;21.60;27.60;;;;;;695724;28;921;-82
2022/03/24 01:30:08;;;;;;;;;;;21.50;26.20;;;;;;693946;28;810;-82
2022/03/24 01:30:29;;;;;;;;;;;21.50;26.10;;;;;;693992;28;874;-82
2022/03/24 01:30:49;;;;;;;;;;;21.60;26.40;;;;;;694149;28;871;-81
2022/03/24 01:31:10;;;;;;;;;;;21.60;26.40;;;;;;694100;28;954;-82
2022/03/24 01:31:33;;;;;;;;;;;21.50;26.00;;;;;;694029;28;890;-82
2022/03/24 01:31:53;;;;;;;;;;;21.60;26.10;;;;;;694016;28;811;-82
2022/03/24 01:32:15;;;;;;;;;;;21.60;26.20;;;;;;694040;28;780;-82
2022/03/24 01:32:36;;;;;;;;;;;21.60;26.20;;;;;;693693;28;1340;-83
2022/03/24 01:32:57;;;;;;;;;;;21.60;26.50;;;;;;690948;28;831;-81
2022/03/24 01:33:17;;;;;;;;;;;21.60;26.50;;;;;;691233;28;779;-81
2022/03/24 01:33:39;;;;;;;;;;;21.60;26.60;;;;;;691080;28;788;-81
2022/03/24 01:33:59;;;;;;;;;;;21.60;26.10;;;;;;691077;28;772;-81
2022/03/24 01:34:20;;;;;;;;;;;21.60;26.40;;;;;;691608;28;887;-81
2022/03/24 01:34:41;;;;;;;;;;;21.60;26.20;;;;;;691606;28;820;-82
2022/03/24 01:35:03;;;;;;;;;;;21.60;26.00;;;;;;693746;28;1898;-79
2022/03/24 01:35:23;;;;;;;;;;;21.60;26.10;;;;;;694001;28;846;-81
2022/03/24 01:35:44;;;;;;;;;;;21.60;26.00;;;;;;693833;28;810;-82
2022/03/24 01:36:05;;;;;;;;;;;21.60;26.60;;;;;;693863;28;794;-80
2022/03/24 01:36:26;;;;;;;;;;;21.60;25.90;;;;;;691615;28;1363;-80
2022/03/24 01:36:46;;;;;;;;;;;21.60;26.50;;;;;;693900;28;799;-80
2022/03/24 01:37:07;;;;;;;;;;;21.60;26.10;;;;;;693911;28;861;-82
2022/03/24 01:37:27;;;;;;;;;;;21.60;26.00;;;;;;691099;28;1137;-80
2022/03/24 01:37:48;;;;;;;;;;;21.60;26.40;;;;;;691248;28;878;-80
2022/03/24 01:38:09;;;;;;;;;;;21.60;25.90;;;;;;691282;28;1279;-81
2022/03/24 01:38:30;;;;;;;;;;;21.60;26.10;;;;;;693811;28;873;-80
2022/03/24 01:38:51;;;;;;;;;;;21.60;25.80;;;;;;694008;28;909;-82
2022/03/24 01:39:12;;;;;;;;;;;21.60;26.80;;;;;;693940;28;897;-83
2022/03/24 01:39:32;;;;;;;;;;;21.60;25.90;;;;;;694231;28;795;-82
2022/03/24 01:39:53;;;;;;;;;;;21.60;26.50;;;;;;694178;28;841;-82
2022/03/24 01:40:14;;;;;;;;;;;21.60;26.20;;;;;;694371;28;854;-81
2022/03/24 01:40:34;;;;;;;;;;;21.60;26.10;;;;;;694326;28;779;-81
2022/03/24 01:40:55;;;;;;;;;;;21.60;26.50;;;;;;696631;28;1325;-81
2022/03/24 01:41:18;;;;;;;;;;;20.40;25.60;;;;;;695051;28;1250;-82
2022/03/24 01:41:40;;;;;;;;;;;21.60;26.30;;;;;;695639;28;802;-81
2022/03/24 01:42:00;;;;;;;;;;;21.60;26.10;;;;;;695035;28;882;-78
2022/03/24 01:42:21;;;;;;;;;;;21.60;25.90;;;;;;694899;28;1015;-81
2022/03/24 01:42:43;;;;;;;;;;;21.60;26.10;;;;;;695104;28;802;-81
2022/03/24 01:43:05;;;;;;;;;;;21.60;25.80;;;;;;695265;28;870;-79
2022/03/24 01:43:26;;;;;;;;;;;21.70;26.50;;;;;;695353;28;806;-81
2022/03/24 01:43:46;;;;;;;;;;;21.60;26.50;;;;;;695367;28;1033;-80
2022/03/24 01:44:12;;;;;;;;;;;21.60;26.10;;;;;;694888;28;874;-81
2022/03/24 01:44:33;;;;;;;;;;;21.60;26.00;;;;;;694052;28;830;-80
2022/03/24 01:44:55;;;;;;;;;;;21.60;26.10;;;;;;694113;28;906;-81
2022/03/24 01:45:16;;;;;;;;;;;21.60;26.10;;;;;;694002;28;1139;-81
2022/03/24 01:45:37;;;;;;;;;;;21.70;26.00;;;;;;694162;28;1039;-81
2022/03/24 01:45:59;;;;;;;;;;;21.70;25.90;;;;;;693886;28;926;-80
2022/03/24 01:46:20;;;;;;;;;;;21.60;25.80;;;;;;694172;28;830;-80
2022/03/24 01:46:58;;;;;;;;;;;21.70;25.90;;;;;;694487;28;847;-82
2022/03/24 01:47:19;;;;;;;;;;;21.60;25.70;;;;;;694224;28;877;-82
2022/03/24 01:47:39;;;;;;;;;;;21.70;26.10;;;;;;694013;28;878;-81
2022/03/24 01:48:00;;;;;;;;;;;21.60;25.70;;;;;;694040;28;878;-82
2022/03/24 01:48:21;;;;;;;;;;;21.70;25.80;;;;;;694353;28;795;-82
2022/03/24 01:48:42;;;;;;;;;;;21.60;26.00;;;;;;694098;28;831;-82
2022/03/24 01:49:03;;;;;;;;;;;21.60;27.20;;;;;;693770;28;1239;-82
2022/03/24 01:49:25;;;;;;;;;;;21.70;26.30;;;;;;694043;28;811;-82
2022/03/24 01:49:49;;;;;;;;;;;18.50;24.70;;;;;;694114;28;1221;-83
2022/03/24 01:50:11;;;;;;;;;;;21.60;26.00;;;;;;693695;28;1246;-83
2022/03/24 01:50:33;;;;;;;;;;;21.70;26.10;;;;;;693689;28;1402;-83
2022/03/24 01:50:53;;;;;;;;;;;21.70;26.50;;;;;;692475;28;1203;-84
2022/03/24 01:51:14;;;;;;;;;;;21.70;25.90;;;;;;693757;28;859;-83
2022/03/24 01:51:35;;;;;;;;;;;21.70;26.00;;;;;;693798;28;771;-83
2022/03/24 01:51:56;;;;;;;;;;;21.70;26.50;;;;;;692988;28;760;-82
2022/03/24 01:52:18;;;;;;;;;;;21.70;26.10;;;;;;691890;28;795;-83
2022/03/24 01:52:38;;;;;;;;;;;21.60;25.90;;;;;;691202;28;1266;-82
2022/03/24 01:52:59;;;;;;;;;;;21.70;26.20;;;;;;693723;28;783;-83
2022/03/24 01:53:20;;;;;;;;;;;21.70;26.30;;;;;;693956;28;823;-83
2022/03/24 01:53:40;;;;;;;;;;;21.70;26.40;;;;;;693843;28;831;-82
2022/03/24 01:54:01;;;;;;;;;;;21.70;25.80;;;;;;693861;28;854;-83
2022/03/24 01:54:23;;;;;;;;;;;21.70;26.50;;;;;;691624;28;1253;-83
2022/03/24 01:54:51;;;;;;;;;;;21.70;25.70;;;;;;693890;28;933;-83
2022/03/24 01:55:13;;;;;;;;;;;21.70;26.00;;;;;;693771;28;941;-83
2022/03/24 01:55:34;;;;;;;;;;;21.70;26.00;;;;;;693775;28;865;-83
2022/03/24 01:55:55;;;;;;;;;;;21.70;26.10;;;;;;693888;28;830;-82
2022/03/24 01:56:16;;;;;;;;;;;21.70;25.90;;;;;;693862;28;799;-82
2022/03/24 01:56:37;;;;;;;;;;;21.60;26.40;;;;;;694088;28;799;-83
2022/03/24 01:56:58;;;;;;;;;;;21.70;26.20;;;;;;693972;28;866;-83
2022/03/24 01:57:19;;;;;;;;;;;21.70;26.10;;;;;;693996;28;783;-82
2022/03/24 01:57:41;;;;;;;;;;;21.60;26.40;;;;;;693831;28;1256;-82
2022/03/24 01:58:02;;;;;;;;;;;21.60;25.70;;;;;;693898;28;838;-82
2022/03/24 01:58:23;;;;;;;;;;;21.60;25.70;;;;;;693867;28;878;-82
2022/03/24 01:58:44;;;;;;;;;;;21.60;25.60;;;;;;693772;28;850;-83
2022/03/24 01:59:07;;;;;;;;;;;21.60;25.60;;;;;;693574;28;933;-82
2022/03/24 01:59:29;;;;;;;;;;;21.70;25.80;;;;;;691777;28;1096;-82
2022/03/24 01:59:49;;;;;;;;;;;21.60;26.00;;;;;;694056;28;897;-81
2022/03/24 02:00:10;;;;;;;;;;;21.60;26.00;;;;;;693852;28;941;-82
2022/03/24 02:00:31;;;;;;;;;;;21.60;25.90;;;;;;693672;28;1326;-82
2022/03/24 02:00:52;;;;;;;;;;;21.60;26.30;;;;;;694027;28;842;-81
2022/03/24 02:01:35;;;;;;;;;;;21.60;25.80;;;;;;693966;28;866;-81
2022/03/24 02:01:57;;;;;;;;;;;21.60;25.70;;;;;;693988;28;866;-81
2022/03/24 02:02:18;;;;;;;;;;;21.60;26.00;;;;;;694329;28;913;-82
2022/03/24 02:02:42;;;;;;;;;;;21.60;26.10;;;;;;693644;28;1315;-83
2022/03/24 02:03:04;;;;;;;;;;;21.60;25.80;;;;;;693778;28;874;-82
2022/03/24 02:03:26;;;;;;;;;;;21.60;25.60;;;;;;693742;28;962;-83
2022/03/24 02:03:47;;;;;;;;;;;21.60;25.70;;;;;;691189;28;818;-82
2022/03/24 02:04:08;;;;;;;;;;;21.50;26.00;;;;;;688268;28;1289;-81
2022/03/24 02:04:30;;;;;;;;;;;21.60;25.90;;;;;;689598;28;835;-82
2022/03/24 02:04:51;;;;;;;;;;;21.60;26.30;;;;;;688135;28;1374;-82
2022/03/24 02:05:11;;;;;;;;;;;21.60;26.10;;;;;;688292;28;768;-82
2022/03/24 02:05:33;;;;;;;;;;;21.60;26.20;;;;;;689257;28;784;-82
2022/03/24 02:05:53;;;;;;;;;;;21.60;25.60;;;;;;691926;28;831;-83
2022/03/24 02:06:14;;;;;;;;;;;21.60;26.30;;;;;;690967;28;1200;-82
2022/03/24 02:06:35;;;;;;;;;;;21.60;25.80;;;;;;691532;28;771;-82
2022/03/24 02:06:56;;;;;;;;;;;21.60;25.60;;;;;;691005;28;1280;-83
2022/03/24 02:07:16;;;;;;;;;;;21.60;26.50;;;;;;691261;28;815;-82
2022/03/24 02:07:37;;;;;;;;;;;21.60;26.30;;;;;;688303;28;1133;-82
2022/03/24 02:08:02;;;;;;;;;;;21.60;25.80;;;;;;688763;28;946;-82
2022/03/24 02:08:22;;;;;;;;;;;21.60;25.80;;;;;;691172;28;847;-82
2022/03/24 02:08:43;;;;;;;;;;;21.60;25.70;;;;;;691816;28;866;-83
2022/03/24 02:09:04;;;;;;;;;;;21.60;26.20;;;;;;693797;28;925;-82
2022/03/24 02:09:25;;;;;;;;;;;21.60;25.80;;;;;;693915;28;814;-82